< Typhoon 196519 1965 Season Typhoon 196521 >
Typhoon 196520 (OLIVE)
General InformationTrack Information on Google Maps || Disaster Info.ResourceGoogle EarthGE AnimationAtom FeedGeoJSON
Detalied Best Track (Time Zone = UTC)
Year Month Day Hour Lat. Long. Pressure (hPa) Wind (kt) Class Image Chart
1965 8 26 06 14.1 143.5 1006 0 2 -- Chart
1965 8 26 12 14.7 145.0 1006 0 2 -- Chart
1965 8 26 18 15.7 146.6 1004 0 2 -- Chart
1965 8 27 00 17.0 148.0 1004 0 2 -- Chart
1965 8 27 06 17.5 147.6 1002 0 2 -- Chart
1965 8 27 12 18.3 147.5 1002 0 2 -- Chart
1965 8 27 18 18.7 147.5 1002 0 2 -- Chart
1965 8 28 00 19.4 147.6 998 0 9 -- Chart
1965 8 28 06 20.0 147.8 990 0 9 -- Chart
1965 8 28 12 20.5 148.0 980 0 9 -- Chart
1965 8 28 18 21.0 148.2 970 0 9 -- Chart
1965 8 29 00 22.0 148.2 955 0 9 -- Chart
1965 8 29 06 22.9 147.5 945 0 9 -- Chart
1965 8 29 12 23.9 147.5 945 0 9 -- Chart
1965 8 29 18 25.1 148.2 945 0 9 -- Chart
1965 8 30 00 25.9 147.8 945 0 9 -- Chart
1965 8 30 06 26.9 147.6 940 0 9 -- Chart
1965 8 30 12 28.0 147.5 940 0 9 -- Chart
1965 8 30 18 29.3 147.5 940 0 9 -- Chart
1965 8 31 00 30.7 147.3 950 0 9 -- Chart
1965 8 31 06 31.2 146.9 950 0 9 -- Chart
1965 8 31 12 32.0 146.6 950 0 9 -- Chart
1965 8 31 18 32.8 146.5 960 0 9 -- Chart
1965 9 1 00 33.8 146.2 970 0 9 -- Chart
1965 9 1 06 34.5 146.2 970 0 9 -- Chart
1965 9 1 12 35.3 146.5 975 0 9 -- Chart
1965 9 1 18 35.8 146.9 975 0 9 -- Chart
1965 9 2 00 36.5 147.3 978 0 9 -- Chart
1965 9 2 06 36.9 148.0 978 0 9 -- Chart
1965 9 2 12 37.3 148.6 980 0 9 -- Chart
1965 9 2 18 37.7 149.4 980 0 9 -- Chart
1965 9 3 00 38.1 150.1 980 0 9 -- Chart
1965 9 3 06 38.5 150.8 980 0 9 -- Chart
1965 9 3 12 39.0 151.6 980 0 9 -- Chart
1965 9 3 18 39.6 152.5 980 0 9 -- Chart
1965 9 4 00 40.4 153.5 986 0 6 -- Chart
1965 9 4 06 41.0 154.7 988 0 6 -- Chart
1965 9 4 12 41.7 156.0 992 0 6 -- Chart
1965 9 4 18 42.4 157.0 994 0 6 -- Chart
1965 9 5 00 43.5 157.1 994 0 6 -- Chart
1965 9 5 06 45.1 157.0 994 0 6 -- Chart
1965 9 5 12 46.4 157.5 994 0 6 -- Chart
1965 9 5 18 47.5 157.9 994 0 6 -- Chart
1965 9 6 00 48.0 158.0 994 0 6 -- Chart
1965 9 6 06 48.5 158.1 990 0 6 -- Chart
1965 9 6 12 49.0 159.0 994 0 6 -- Chart
1965 9 6 18 49.5 161.5 996 0 6 -- Chart
Japan Meteorological Agency Best Track Data | Correction Date : 2013-03-19
< Typhoon 196519 1965 Season Typhoon 196521 >

Help